sensor_id;sensor_type;location;lat;lon;timestamp;P1;durP1;ratioP1;P2;durP2;ratioP2
54953;SDS011;40855;51.072;5.402;2023-03-14T00:01:19;5.18;;;1.00;;
54953;SDS011;40855;51.072;5.402;2023-03-14T00:03:45;9.98;;;1.73;;
54953;SDS011;40855;51.072;5.402;2023-03-14T00:06:12;7.57;;;1.58;;
54953;SDS011;40855;51.072;5.402;2023-03-14T00:08:39;4.88;;;1.30;;
54953;SDS011;40855;51.072;5.402;2023-03-14T00:11:09;3.80;;;1.17;;
54953;SDS011;40855;51.072;5.402;2023-03-14T00:13:43;7.30;;;1.23;;
54953;SDS011;40855;51.072;5.402;2023-03-14T00:16:12;10.32;;;1.95;;
54953;SDS011;40855;51.072;5.402;2023-03-14T00:18:38;5.82;;;1.02;;
54953;SDS011;40855;51.072;5.402;2023-03-14T00:21:05;6.03;;;1.25;;
54953;SDS011;40855;51.072;5.402;2023-03-14T00:23:32;7.40;;;1.13;;
54953;SDS011;40855;51.072;5.402;2023-03-14T00:26:04;3.53;;;0.88;;
54953;SDS011;40855;51.072;5.402;2023-03-14T00:28:33;6.72;;;1.05;;
54953;SDS011;40855;51.072;5.402;2023-03-14T00:31:02;6.65;;;1.15;;
54953;SDS011;40855;51.072;5.402;2023-03-14T00:33:28;6.32;;;1.33;;
54953;SDS011;40855;51.072;5.402;2023-03-14T00:35:58;8.57;;;1.40;;
54953;SDS011;40855;51.072;5.402;2023-03-14T00:38:26;4.65;;;1.23;;
54953;SDS011;40855;51.072;5.402;2023-03-14T00:40:52;6.75;;;0.93;;
54953;SDS011;40855;51.072;5.402;2023-03-14T00:43:18;4.32;;;1.10;;
54953;SDS011;40855;51.072;5.402;2023-03-14T00:45:49;8.25;;;1.58;;
54953;SDS011;40855;51.072;5.402;2023-03-14T00:48:16;5.68;;;1.13;;
54953;SDS011;40855;51.072;5.402;2023-03-14T00:50:42;6.35;;;1.10;;
54953;SDS011;40855;51.072;5.402;2023-03-14T00:53:08;7.20;;;1.00;;
54953;SDS011;40855;51.072;5.402;2023-03-14T00:55:37;4.70;;;1.50;;
54953;SDS011;40855;51.072;5.402;2023-03-14T00:58:04;4.57;;;1.17;;
54953;SDS011;40855;51.072;5.402;2023-03-14T01:00:30;6.00;;;1.00;;
54953;SDS011;40855;51.072;5.402;2023-03-14T01:02:56;6.22;;;1.00;;
54953;SDS011;40855;51.072;5.402;2023-03-14T01:05:21;8.30;;;1.38;;
54953;SDS011;40855;51.072;5.402;2023-03-14T01:07:47;7.63;;;1.20;;
54953;SDS011;40855;51.072;5.402;2023-03-14T01:10:13;4.45;;;1.00;;
54953;SDS011;40855;51.072;5.402;2023-03-14T01:12:39;3.28;;;0.93;;
54953;SDS011;40855;51.072;5.402;2023-03-14T01:15:05;6.15;;;1.10;;
54953;SDS011;40855;51.072;5.402;2023-03-14T01:17:31;5.32;;;0.82;;
54953;SDS011;40855;51.072;5.402;2023-03-14T01:19:57;5.55;;;1.10;;
54953;SDS011;40855;51.072;5.402;2023-03-14T01:22:22;11.77;;;1.13;;
54953;SDS011;40855;51.072;5.402;2023-03-14T01:24:48;3.85;;;1.00;;
54953;SDS011;40855;51.072;5.402;2023-03-14T01:27:14;7.78;;;1.38;;
54953;SDS011;40855;51.072;5.402;2023-03-14T01:29:39;10.60;;;1.05;;
54953;SDS011;40855;51.072;5.402;2023-03-14T01:32:05;11.00;;;1.60;;
54953;SDS011;40855;51.072;5.402;2023-03-14T01:34:31;7.32;;;1.08;;
54953;SDS011;40855;51.072;5.402;2023-03-14T01:36:56;6.80;;;1.50;;
54953;SDS011;40855;51.072;5.402;2023-03-14T01:39:22;9.52;;;0.95;;
54953;SDS011;40855;51.072;5.402;2023-03-14T01:41:47;6.13;;;1.23;;
54953;SDS011;40855;51.072;5.402;2023-03-14T01:44:13;9.27;;;1.30;;
54953;SDS011;40855;51.072;5.402;2023-03-14T01:46:40;8.80;;;1.27;;
54953;SDS011;40855;51.072;5.402;2023-03-14T01:49:29;14.70;;;1.63;;
54953;SDS011;40855;51.072;5.402;2023-03-14T01:54:33;7.30;;;1.42;;
54953;SDS011;40855;51.072;5.402;2023-03-14T01:57:47;6.10;;;1.08;;
54953;SDS011;40855;51.072;5.402;2023-03-14T02:00:05;6.90;;;1.30;;
54953;SDS011;40855;51.072;5.402;2023-03-14T02:02:39;14.40;;;1.53;;
54953;SDS011;40855;51.072;5.402;2023-03-14T02:05:10;14.15;;;1.90;;
54953;SDS011;40855;51.072;5.402;2023-03-14T02:10:17;12.30;;;1.63;;
54953;SDS011;40855;51.072;5.402;2023-03-14T02:12:47;8.52;;;1.50;;
54953;SDS011;40855;51.072;5.402;2023-03-14T02:15:14;12.05;;;1.73;;
54953;SDS011;40855;51.072;5.402;2023-03-14T02:17:40;11.60;;;1.63;;
54953;SDS011;40855;51.072;5.402;2023-03-14T02:22:59;9.15;;;1.58;;
54953;SDS011;40855;51.072;5.402;2023-03-14T02:25:39;8.23;;;1.50;;
54953;SDS011;40855;51.072;5.402;2023-03-14T02:28:29;10.32;;;1.75;;
54953;SDS011;40855;51.072;5.402;2023-03-14T02:30:54;8.80;;;1.42;;
54953;SDS011;40855;51.072;5.402;2023-03-14T02:33:20;10.10;;;1.60;;
54953;SDS011;40855;51.072;5.402;2023-03-14T02:35:51;7.30;;;1.60;;
54953;SDS011;40855;51.072;5.402;2023-03-14T02:40:56;11.55;;;1.95;;
54953;SDS011;40855;51.072;5.402;2023-03-14T02:43:22;8.38;;;1.20;;
54953;SDS011;40855;51.072;5.402;2023-03-14T02:45:48;8.40;;;1.40;;
54953;SDS011;40855;51.072;5.402;2023-03-14T02:50:49;10.05;;;1.30;;
54953;SDS011;40855;51.072;5.402;2023-03-14T02:53:19;8.52;;;1.42;;
54953;SDS011;40855;51.072;5.402;2023-03-14T02:55:48;6.68;;;1.17;;
54953;SDS011;40855;51.072;5.402;2023-03-14T02:58:14;8.27;;;1.20;;
54953;SDS011;40855;51.072;5.402;2023-03-14T03:00:41;7.80;;;1.67;;
54953;SDS011;40855;51.072;5.402;2023-03-14T03:03:06;10.38;;;1.10;;
54953;SDS011;40855;51.072;5.402;2023-03-14T03:05:32;10.02;;;1.63;;
54953;SDS011;40855;51.072;5.402;2023-03-14T03:07:58;12.18;;;1.40;;
54953;SDS011;40855;51.072;5.402;2023-03-14T03:10:24;8.90;;;1.13;;
54953;SDS011;40855;51.072;5.402;2023-03-14T03:12:50;9.15;;;1.70;;
54953;SDS011;40855;51.072;5.402;2023-03-14T03:15:16;10.43;;;1.50;;
54953;SDS011;40855;51.072;5.402;2023-03-14T03:17:42;7.30;;;1.20;;
54953;SDS011;40855;51.072;5.402;2023-03-14T03:20:08;7.45;;;1.15;;
54953;SDS011;40855;51.072;5.402;2023-03-14T03:22:35;8.73;;;1.38;;
54953;SDS011;40855;51.072;5.402;2023-03-14T03:25:02;10.90;;;1.25;;
54953;SDS011;40855;51.072;5.402;2023-03-14T03:27:32;8.77;;;1.30;;
54953;SDS011;40855;51.072;5.402;2023-03-14T03:29:59;7.40;;;1.40;;
54953;SDS011;40855;51.072;5.402;2023-03-14T03:32:25;6.97;;;1.00;;
54953;SDS011;40855;51.072;5.402;2023-03-14T03:34:51;6.30;;;0.88;;
54953;SDS011;40855;51.072;5.402;2023-03-14T03:37:17;7.32;;;1.50;;
54953;SDS011;40855;51.072;5.402;2023-03-14T03:39:43;4.75;;;1.30;;
54953;SDS011;40855;51.072;5.402;2023-03-14T03:42:09;4.05;;;0.80;;
54953;SDS011;40855;51.072;5.402;2023-03-14T03:44:34;4.85;;;0.88;;
54953;SDS011;40855;51.072;5.402;2023-03-14T03:47:01;8.40;;;0.80;;
54953;SDS011;40855;51.072;5.402;2023-03-14T03:49:30;6.75;;;1.35;;
54953;SDS011;40855;51.072;5.402;2023-03-14T03:51:56;5.65;;;0.85;;
54953;SDS011;40855;51.072;5.402;2023-03-14T03:54:22;10.20;;;0.90;;
54953;SDS011;40855;51.072;5.402;2023-03-14T03:56:48;4.53;;;0.70;;
54953;SDS011;40855;51.072;5.402;2023-03-14T03:59:14;9.23;;;0.85;;
54953;SDS011;40855;51.072;5.402;2023-03-14T04:01:39;3.75;;;0.60;;
54953;SDS011;40855;51.072;5.402;2023-03-14T04:04:05;3.10;;;0.70;;
54953;SDS011;40855;51.072;5.402;2023-03-14T04:06:31;4.55;;;1.10;;
54953;SDS011;40855;51.072;5.402;2023-03-14T04:08:57;6.57;;;1.83;;
54953;SDS011;40855;51.072;5.402;2023-03-14T04:11:23;7.70;;;1.50;;
54953;SDS011;40855;51.072;5.402;2023-03-14T04:13:48;6.20;;;1.00;;
54953;SDS011;40855;51.072;5.402;2023-03-14T04:16:15;8.02;;;1.60;;
54953;SDS011;40855;51.072;5.402;2023-03-14T04:18:43;8.48;;;1.60;;
54953;SDS011;40855;51.072;5.402;2023-03-14T04:21:08;8.30;;;1.40;;
54953;SDS011;40855;51.072;5.402;2023-03-14T04:23:34;9.35;;;1.70;;
54953;SDS011;40855;51.072;5.402;2023-03-14T04:26:00;10.80;;;1.60;;
54953;SDS011;40855;51.072;5.402;2023-03-14T04:28:25;6.68;;;1.70;;
54953;SDS011;40855;51.072;5.402;2023-03-14T04:30:51;4.80;;;1.40;;
54953;SDS011;40855;51.072;5.402;2023-03-14T04:33:17;15.80;;;2.20;;
54953;SDS011;40855;51.072;5.402;2023-03-14T04:35:45;10.32;;;2.00;;
54953;SDS011;40855;51.072;5.402;2023-03-14T04:38:12;8.23;;;1.50;;
54953;SDS011;40855;51.072;5.402;2023-03-14T04:40:41;11.15;;;2.05;;
54953;SDS011;40855;51.072;5.402;2023-03-14T04:43:07;8.50;;;1.60;;
54953;SDS011;40855;51.072;5.402;2023-03-14T04:45:35;9.55;;;1.90;;
54953;SDS011;40855;51.072;5.402;2023-03-14T04:48:00;11.40;;;2.00;;
54953;SDS011;40855;51.072;5.402;2023-03-14T04:50:27;8.75;;;1.42;;
54953;SDS011;40855;51.072;5.402;2023-03-14T04:52:52;7.28;;;1.42;;
54953;SDS011;40855;51.072;5.402;2023-03-14T04:55:18;10.25;;;1.58;;
54953;SDS011;40855;51.072;5.402;2023-03-14T04:57:44;8.65;;;1.80;;
54953;SDS011;40855;51.072;5.402;2023-03-14T05:00:10;10.50;;;1.80;;
54953;SDS011;40855;51.072;5.402;2023-03-14T05:02:37;5.60;;;1.40;;
54953;SDS011;40855;51.072;5.402;2023-03-14T05:05:02;8.38;;;1.13;;
54953;SDS011;40855;51.072;5.402;2023-03-14T05:07:29;4.85;;;1.23;;
54953;SDS011;40855;51.072;5.402;2023-03-14T05:09:54;8.38;;;1.23;;
54953;SDS011;40855;51.072;5.402;2023-03-14T05:12:20;7.82;;;1.25;;
54953;SDS011;40855;51.072;5.402;2023-03-14T05:14:46;8.70;;;1.30;;
54953;SDS011;40855;51.072;5.402;2023-03-14T05:17:11;6.88;;;1.75;;
54953;SDS011;40855;51.072;5.402;2023-03-14T05:19:39;7.53;;;1.80;;
54953;SDS011;40855;51.072;5.402;2023-03-14T05:22:06;4.10;;;1.05;;
54953;SDS011;40855;51.072;5.402;2023-03-14T05:24:32;9.65;;;1.65;;
54953;SDS011;40855;51.072;5.402;2023-03-14T05:26:58;5.28;;;1.30;;
54953;SDS011;40855;51.072;5.402;2023-03-14T05:29:23;2.83;;;1.20;;
54953;SDS011;40855;51.072;5.402;2023-03-14T05:31:49;4.95;;;1.20;;
54953;SDS011;40855;51.072;5.402;2023-03-14T05:34:15;5.43;;;1.42;;
54953;SDS011;40855;51.072;5.402;2023-03-14T05:36:40;5.90;;;1.60;;
54953;SDS011;40855;51.072;5.402;2023-03-14T05:39:06;3.45;;;0.95;;
54953;SDS011;40855;51.072;5.402;2023-03-14T05:41:32;3.17;;;1.13;;
54953;SDS011;40855;51.072;5.402;2023-03-14T05:43:58;3.33;;;1.20;;
54953;SDS011;40855;51.072;5.402;2023-03-14T05:46:23;4.13;;;1.38;;
54953;SDS011;40855;51.072;5.402;2023-03-14T05:48:49;3.92;;;1.33;;
54953;SDS011;40855;51.072;5.402;2023-03-14T05:51:14;3.25;;;1.35;;
54953;SDS011;40855;51.072;5.402;2023-03-14T05:53:40;1.92;;;1.17;;
54953;SDS011;40855;51.072;5.402;2023-03-14T05:56:06;2.08;;;1.00;;
54953;SDS011;40855;51.072;5.402;2023-03-14T05:58:32;1.70;;;1.30;;
54953;SDS011;40855;51.072;5.402;2023-03-14T06:01:01;5.07;;;1.50;;
54953;SDS011;40855;51.072;5.402;2023-03-14T06:03:28;1.92;;;1.27;;
54953;SDS011;40855;51.072;5.402;2023-03-14T06:05:54;4.13;;;1.35;;
54953;SDS011;40855;51.072;5.402;2023-03-14T06:08:19;2.42;;;1.33;;
54953;SDS011;40855;51.072;5.402;2023-03-14T06:10:45;1.33;;;1.05;;
54953;SDS011;40855;51.072;5.402;2023-03-14T06:13:11;2.17;;;1.15;;
54953;SDS011;40855;51.072;5.402;2023-03-14T06:15:37;2.08;;;1.30;;
54953;SDS011;40855;51.072;5.402;2023-03-14T06:18:02;3.30;;;1.50;;
54953;SDS011;40855;51.072;5.402;2023-03-14T06:20:28;4.55;;;1.40;;
54953;SDS011;40855;51.072;5.402;2023-03-14T06:22:54;4.65;;;1.25;;
54953;SDS011;40855;51.072;5.402;2023-03-14T06:25:20;1.90;;;1.20;;
54953;SDS011;40855;51.072;5.402;2023-03-14T06:27:45;3.38;;;1.38;;
54953;SDS011;40855;51.072;5.402;2023-03-14T06:30:11;3.90;;;1.20;;
54953;SDS011;40855;51.072;5.402;2023-03-14T06:32:37;1.70;;;1.38;;
54953;SDS011;40855;51.072;5.402;2023-03-14T06:35:02;3.92;;;1.48;;
54953;SDS011;40855;51.072;5.402;2023-03-14T06:37:29;2.70;;;1.67;;
54953;SDS011;40855;51.072;5.402;2023-03-14T06:39:55;2.55;;;1.63;;
54953;SDS011;40855;51.072;5.402;2023-03-14T06:42:21;2.20;;;1.70;;
54953;SDS011;40855;51.072;5.402;2023-03-14T06:44:47;2.33;;;1.50;;
54953;SDS011;40855;51.072;5.402;2023-03-14T06:47:13;4.82;;;2.20;;
54953;SDS011;40855;51.072;5.402;2023-03-14T06:49:39;3.28;;;1.63;;
54953;SDS011;40855;51.072;5.402;2023-03-14T06:52:04;2.17;;;1.75;;
54953;SDS011;40855;51.072;5.402;2023-03-14T06:54:30;3.88;;;1.88;;
54953;SDS011;40855;51.072;5.402;2023-03-14T06:56:56;2.92;;;1.98;;
54953;SDS011;40855;51.072;5.402;2023-03-14T06:59:22;4.45;;;2.13;;
54953;SDS011;40855;51.072;5.402;2023-03-14T07:01:47;3.63;;;2.10;;
54953;SDS011;40855;51.072;5.402;2023-03-14T07:04:14;1.70;;;1.60;;
54953;SDS011;40855;51.072;5.402;2023-03-14T07:06:39;3.60;;;1.73;;
54953;SDS011;40855;51.072;5.402;2023-03-14T07:09:09;5.53;;;1.40;;
54953;SDS011;40855;51.072;5.402;2023-03-14T07:11:38;7.38;;;2.00;;
54953;SDS011;40855;51.072;5.402;2023-03-14T07:14:04;4.28;;;1.55;;
54953;SDS011;40855;51.072;5.402;2023-03-14T07:16:30;3.60;;;1.40;;
54953;SDS011;40855;51.072;5.402;2023-03-14T07:18:58;2.55;;;1.38;;
54953;SDS011;40855;51.072;5.402;2023-03-14T07:21:24;2.17;;;1.30;;
54953;SDS011;40855;51.072;5.402;2023-03-14T07:23:49;2.25;;;1.20;;
54953;SDS011;40855;51.072;5.402;2023-03-14T07:26:15;2.85;;;1.50;;
54953;SDS011;40855;51.072;5.402;2023-03-14T07:28:41;2.47;;;1.77;;
54953;SDS011;40855;51.072;5.402;2023-03-14T07:31:07;7.07;;;1.77;;
54953;SDS011;40855;51.072;5.402;2023-03-14T07:33:33;2.85;;;2.20;;
54953;SDS011;40855;51.072;5.402;2023-03-14T07:35:59;7.07;;;1.92;;
54953;SDS011;40855;51.072;5.402;2023-03-14T07:38:24;4.38;;;1.85;;
54953;SDS011;40855;51.072;5.402;2023-03-14T07:40:50;3.72;;;1.80;;
54953;SDS011;40855;51.072;5.402;2023-03-14T07:43:22;4.57;;;1.80;;
54953;SDS011;40855;51.072;5.402;2023-03-14T07:45:48;4.38;;;1.75;;
54953;SDS011;40855;51.072;5.402;2023-03-14T07:48:13;3.30;;;1.75;;
54953;SDS011;40855;51.072;5.402;2023-03-14T07:50:39;7.47;;;1.80;;
54953;SDS011;40855;51.072;5.402;2023-03-14T07:53:05;0.82;;;0.40;;
54953;SDS011;40855;51.072;5.402;2023-03-14T07:55:30;0.93;;;0.40;;
54953;SDS011;40855;51.072;5.402;2023-03-14T07:57:56;0.90;;;0.43;;
54953;SDS011;40855;51.072;5.402;2023-03-14T08:00:22;0.50;;;0.43;;
54953;SDS011;40855;51.072;5.402;2023-03-14T08:02:47;1.42;;;0.60;;
54953;SDS011;40855;51.072;5.402;2023-03-14T08:05:13;1.63;;;0.50;;
54953;SDS011;40855;51.072;5.402;2023-03-14T08:07:39;0.40;;;0.40;;
54953;SDS011;40855;51.072;5.402;2023-03-14T08:10:05;0.40;;;0.32;;
54953;SDS011;40855;51.072;5.402;2023-03-14T08:12:31;4.30;;;0.47;;
54953;SDS011;40855;51.072;5.402;2023-03-14T08:14:56;2.88;;;0.68;;
54953;SDS011;40855;51.072;5.402;2023-03-14T08:17:24;1.73;;;0.30;;
54953;SDS011;40855;51.072;5.402;2023-03-14T08:19:50;2.13;;;0.38;;
54953;SDS011;40855;51.072;5.402;2023-03-14T08:22:15;1.38;;;0.30;;
54953;SDS011;40855;51.072;5.402;2023-03-14T08:24:41;1.85;;;0.38;;
54953;SDS011;40855;51.072;5.402;2023-03-14T08:27:07;0.30;;;0.30;;
54953;SDS011;40855;51.072;5.402;2023-03-14T08:29:33;0.60;;;0.52;;
54953;SDS011;40855;51.072;5.402;2023-03-14T08:31:58;0.52;;;0.40;;
54953;SDS011;40855;51.072;5.402;2023-03-14T08:34:24;0.77;;;0.30;;
54953;SDS011;40855;51.072;5.402;2023-03-14T08:36:50;0.47;;;0.40;;
54953;SDS011;40855;51.072;5.402;2023-03-14T08:39:16;1.60;;;0.30;;
54953;SDS011;40855;51.072;5.402;2023-03-14T08:41:41;2.65;;;0.45;;
54953;SDS011;40855;51.072;5.402;2023-03-14T08:44:09;0.50;;;0.40;;
54953;SDS011;40855;51.072;5.402;2023-03-14T08:46:36;0.80;;;0.40;;
54953;SDS011;40855;51.072;5.402;2023-03-14T08:49:02;1.13;;;0.40;;
54953;SDS011;40855;51.072;5.402;2023-03-14T08:51:28;1.20;;;0.30;;
54953;SDS011;40855;51.072;5.402;2023-03-14T08:53:54;3.28;;;0.30;;
54953;SDS011;40855;51.072;5.402;2023-03-14T08:56:19;2.13;;;0.40;;
54953;SDS011;40855;51.072;5.402;2023-03-14T08:58:45;4.88;;;0.40;;
54953;SDS011;40855;51.072;5.402;2023-03-14T09:01:11;4.63;;;0.57;;
54953;SDS011;40855;51.072;5.402;2023-03-14T09:03:37;1.45;;;0.50;;
54953;SDS011;40855;51.072;5.402;2023-03-14T09:06:03;10.27;;;0.57;;
54953;SDS011;40855;51.072;5.402;2023-03-14T09:08:30;3.10;;;0.32;;
54953;SDS011;40855;51.072;5.402;2023-03-14T09:10:56;3.75;;;0.50;;
54953;SDS011;40855;51.072;5.402;2023-03-14T09:13:21;7.25;;;0.50;;
54953;SDS011;40855;51.072;5.402;2023-03-14T09:15:56;3.10;;;0.55;;
54953;SDS011;40855;51.072;5.402;2023-03-14T09:18:22;3.45;;;0.60;;
54953;SDS011;40855;51.072;5.402;2023-03-14T09:20:48;9.48;;;0.77;;
54953;SDS011;40855;51.072;5.402;2023-03-14T09:23:14;2.55;;;0.52;;
54953;SDS011;40855;51.072;5.402;2023-03-14T09:25:40;3.97;;;0.70;;
54953;SDS011;40855;51.072;5.402;2023-03-14T09:28:06;1.70;;;0.70;;
54953;SDS011;40855;51.072;5.402;2023-03-14T09:30:32;2.50;;;0.75;;
54953;SDS011;40855;51.072;5.402;2023-03-14T09:32:58;5.70;;;0.90;;
54953;SDS011;40855;51.072;5.402;2023-03-14T09:35:24;4.70;;;0.90;;
54953;SDS011;40855;51.072;5.402;2023-03-14T09:37:50;3.22;;;0.70;;
54953;SDS011;40855;51.072;5.402;2023-03-14T09:40:16;5.07;;;0.63;;
54953;SDS011;40855;51.072;5.402;2023-03-14T09:42:44;0.95;;;0.60;;
54953;SDS011;40855;51.072;5.402;2023-03-14T09:45:26;5.60;;;0.60;;
54953;SDS011;40855;51.072;5.402;2023-03-14T09:48:02;5.03;;;0.80;;
54953;SDS011;40855;51.072;5.402;2023-03-14T09:50:40;1.50;;;0.73;;
54953;SDS011;40855;51.072;5.402;2023-03-14T09:53:27;0.45;;;0.30;;
54953;SDS011;40855;51.072;5.402;2023-03-14T09:56:01;4.22;;;0.50;;
54953;SDS011;40855;51.072;5.402;2023-03-14T09:58:27;1.10;;;0.40;;
54953;SDS011;40855;51.072;5.402;2023-03-14T10:00:54;1.58;;;0.52;;
54953;SDS011;40855;51.072;5.402;2023-03-14T10:05:50;4.32;;;0.60;;
54953;SDS011;40855;51.072;5.402;2023-03-14T10:08:16;3.78;;;0.70;;
54953;SDS011;40855;51.072;5.402;2023-03-14T10:10:42;3.17;;;0.65;;
54953;SDS011;40855;51.072;5.402;2023-03-14T10:13:12;4.55;;;0.60;;
54953;SDS011;40855;51.072;5.402;2023-03-14T10:15:54;1.80;;;0.50;;
54953;SDS011;40855;51.072;5.402;2023-03-14T10:18:25;1.85;;;0.55;;
54953;SDS011;40855;51.072;5.402;2023-03-14T10:21:03;4.43;;;0.60;;
54953;SDS011;40855;51.072;5.402;2023-03-14T10:26:03;3.13;;;0.85;;
54953;SDS011;40855;51.072;5.402;2023-03-14T10:28:53;3.53;;;0.90;;
54953;SDS011;40855;51.072;5.402;2023-03-14T10:31:18;4.68;;;0.60;;
54953;SDS011;40855;51.072;5.402;2023-03-14T10:33:59;7.45;;;1.27;;
54953;SDS011;40855;51.072;5.402;2023-03-14T10:36:28;2.63;;;0.73;;
54953;SDS011;40855;51.072;5.402;2023-03-14T10:38:57;4.05;;;1.30;;
54953;SDS011;40855;51.072;5.402;2023-03-14T10:41:49;7.25;;;0.90;;
54953;SDS011;40855;51.072;5.402;2023-03-14T10:44:20;5.45;;;1.00;;
54953;SDS011;40855;51.072;5.402;2023-03-14T10:46:55;2.08;;;0.98;;
54953;SDS011;40855;51.072;5.402;2023-03-14T10:49:42;2.83;;;1.30;;
54953;SDS011;40855;51.072;5.402;2023-03-14T10:52:27;6.70;;;1.52;;
54953;SDS011;40855;51.072;5.402;2023-03-14T10:55:08;7.15;;;1.70;;
54953;SDS011;40855;51.072;5.402;2023-03-14T10:57:39;5.90;;;1.40;;
54953;SDS011;40855;51.072;5.402;2023-03-14T11:00:11;7.75;;;1.63;;
54953;SDS011;40855;51.072;5.402;2023-03-14T11:05:28;1.83;;;1.30;;
54953;SDS011;40855;51.072;5.402;2023-03-14T11:10:49;6.57;;;1.33;;
54953;SDS011;40855;51.072;5.402;2023-03-14T11:13:30;3.15;;;1.10;;
54953;SDS011;40855;51.072;5.402;2023-03-14T11:19:17;1.52;;;0.68;;
54953;SDS011;40855;51.072;5.402;2023-03-14T11:21:53;6.32;;;1.27;;
54953;SDS011;40855;51.072;5.402;2023-03-14T11:27:17;6.82;;;1.10;;
54953;SDS011;40855;51.072;5.402;2023-03-14T11:30:03;5.65;;;1.00;;
54953;SDS011;40855;51.072;5.402;2023-03-14T11:32:48;2.08;;;0.60;;
54953;SDS011;40855;51.072;5.402;2023-03-14T11:38:35;1.65;;;0.70;;
54953;SDS011;40855;51.072;5.402;2023-03-14T11:40:55;2.28;;;0.82;;
54953;SDS011;40855;51.072;5.402;2023-03-14T11:43:28;3.85;;;1.05;;
54953;SDS011;40855;51.072;5.402;2023-03-14T11:46:14;5.95;;;0.73;;
54953;SDS011;40855;51.072;5.402;2023-03-14T11:59:27;5.05;;;1.02;;
54953;SDS011;40855;51.072;5.402;2023-03-14T12:07:21;4.05;;;0.88;;
54953;SDS011;40855;51.072;5.402;2023-03-14T12:09:54;4.50;;;1.08;;
54953;SDS011;40855;51.072;5.402;2023-03-14T12:12:25;5.10;;;0.95;;
54953;SDS011;40855;51.072;5.402;2023-03-14T12:14:54;6.57;;;1.17;;
54953;SDS011;40855;51.072;5.402;2023-03-14T12:17:41;5.63;;;1.00;;
54953;SDS011;40855;51.072;5.402;2023-03-14T12:22:49;11.23;;;1.40;;
54953;SDS011;40855;51.072;5.402;2023-03-14T12:25:20;6.68;;;1.20;;
54953;SDS011;40855;51.072;5.402;2023-03-14T12:30:26;11.38;;;1.42;;
54953;SDS011;40855;51.072;5.402;2023-03-14T12:33:10;13.48;;;1.65;;
54953;SDS011;40855;51.072;5.402;2023-03-14T12:35:59;12.07;;;1.75;;
54953;SDS011;40855;51.072;5.402;2023-03-14T12:43:51;17.92;;;2.38;;
54953;SDS011;40855;51.072;5.402;2023-03-14T12:48:44;16.60;;;2.13;;
54953;SDS011;40855;51.072;5.402;2023-03-14T12:51:46;24.35;;;3.20;;
54953;SDS011;40855;51.072;5.402;2023-03-14T12:59:50;13.77;;;2.30;;
54953;SDS011;40855;51.072;5.402;2023-03-14T13:02:21;17.77;;;2.70;;
54953;SDS011;40855;51.072;5.402;2023-03-14T13:04:51;18.58;;;3.10;;
54953;SDS011;40855;51.072;5.402;2023-03-14T13:15:40;13.05;;;2.00;;
54953;SDS011;40855;51.072;5.402;2023-03-14T13:18:12;19.90;;;2.05;;
54953;SDS011;40855;51.072;5.402;2023-03-14T13:20:53;19.73;;;2.20;;
54953;SDS011;40855;51.072;5.402;2023-03-14T13:23:25;19.38;;;2.13;;
54953;SDS011;40855;51.072;5.402;2023-03-14T13:25:52;16.95;;;1.98;;
54953;SDS011;40855;51.072;5.402;2023-03-14T13:28:18;20.58;;;2.13;;
54953;SDS011;40855;51.072;5.402;2023-03-14T13:30:46;24.65;;;2.47;;
54953;SDS011;40855;51.072;5.402;2023-03-14T13:33:20;11.55;;;1.75;;
54953;SDS011;40855;51.072;5.402;2023-03-14T13:35:48;13.27;;;2.00;;
54953;SDS011;40855;51.072;5.402;2023-03-14T13:38:21;15.80;;;1.90;;
54953;SDS011;40855;51.072;5.402;2023-03-14T13:40:50;17.08;;;2.63;;
54953;SDS011;40855;51.072;5.402;2023-03-14T13:45:55;9.65;;;1.70;;
54953;SDS011;40855;51.072;5.402;2023-03-14T13:48:26;19.98;;;2.38;;
54953;SDS011;40855;51.072;5.402;2023-03-14T13:51:40;16.00;;;2.17;;
54953;SDS011;40855;51.072;5.402;2023-03-14T13:53:46;18.48;;;2.45;;
54953;SDS011;40855;51.072;5.402;2023-03-14T13:56:12;20.83;;;3.10;;
54953;SDS011;40855;51.072;5.402;2023-03-14T13:58:39;20.40;;;2.38;;
54953;SDS011;40855;51.072;5.402;2023-03-14T14:01:10;12.45;;;1.95;;
54953;SDS011;40855;51.072;5.402;2023-03-14T14:03:40;26.80;;;2.47;;
54953;SDS011;40855;51.072;5.402;2023-03-14T14:06:09;19.65;;;2.42;;
54953;SDS011;40855;51.072;5.402;2023-03-14T14:08:52;20.67;;;2.65;;
54953;SDS011;40855;51.072;5.402;2023-03-14T14:14:17;12.02;;;1.92;;
54953;SDS011;40855;51.072;5.402;2023-03-14T14:16:46;9.02;;;1.98;;
54953;SDS011;40855;51.072;5.402;2023-03-14T14:19:13;7.85;;;1.20;;
54953;SDS011;40855;51.072;5.402;2023-03-14T14:21:41;13.10;;;1.63;;
54953;SDS011;40855;51.072;5.402;2023-03-14T14:24:14;17.77;;;2.47;;
54953;SDS011;40855;51.072;5.402;2023-03-14T14:26:46;15.27;;;1.40;;
54953;SDS011;40855;51.072;5.402;2023-03-14T14:29:29;6.95;;;1.17;;
54953;SDS011;40855;51.072;5.402;2023-03-14T14:31:59;8.65;;;1.20;;
54953;SDS011;40855;51.072;5.402;2023-03-14T14:37:18;7.60;;;0.98;;
54953;SDS011;40855;51.072;5.402;2023-03-14T14:39:44;9.85;;;1.10;;
54953;SDS011;40855;51.072;5.402;2023-03-14T14:42:13;8.85;;;1.05;;
54953;SDS011;40855;51.072;5.402;2023-03-14T14:44:43;15.48;;;1.20;;
54953;SDS011;40855;51.072;5.402;2023-03-14T14:47:13;13.82;;;1.30;;
54953;SDS011;40855;51.072;5.402;2023-03-14T14:49:41;7.22;;;1.05;;
54953;SDS011;40855;51.072;5.402;2023-03-14T14:52:17;6.88;;;1.17;;
54953;SDS011;40855;51.072;5.402;2023-03-14T14:54:58;7.10;;;1.45;;
54953;SDS011;40855;51.072;5.402;2023-03-14T14:57:26;7.28;;;1.13;;
54953;SDS011;40855;51.072;5.402;2023-03-14T15:00:05;6.40;;;1.02;;
54953;SDS011;40855;51.072;5.402;2023-03-14T15:02:45;6.80;;;1.65;;
54953;SDS011;40855;51.072;5.402;2023-03-14T15:05:16;11.02;;;1.50;;
54953;SDS011;40855;51.072;5.402;2023-03-14T15:07:43;12.63;;;1.33;;
54953;SDS011;40855;51.072;5.402;2023-03-14T15:10:10;8.73;;;0.90;;
54953;SDS011;40855;51.072;5.402;2023-03-14T15:12:37;11.75;;;1.35;;
54953;SDS011;40855;51.072;5.402;2023-03-14T15:15:03;13.65;;;1.30;;
54953;SDS011;40855;51.072;5.402;2023-03-14T15:17:30;5.53;;;1.15;;
54953;SDS011;40855;51.072;5.402;2023-03-14T15:19:56;6.68;;;1.10;;
54953;SDS011;40855;51.072;5.402;2023-03-14T15:22:23;2.90;;;0.60;;
54953;SDS011;40855;51.072;5.402;2023-03-14T15:24:49;6.93;;;0.75;;
54953;SDS011;40855;51.072;5.402;2023-03-14T15:27:16;6.45;;;1.23;;
54953;SDS011;40855;51.072;5.402;2023-03-14T15:29:43;5.97;;;0.70;;
54953;SDS011;40855;51.072;5.402;2023-03-14T15:32:13;6.20;;;0.80;;
54953;SDS011;40855;51.072;5.402;2023-03-14T15:34:41;4.68;;;0.80;;
54953;SDS011;40855;51.072;5.402;2023-03-14T15:37:14;3.70;;;0.70;;
54953;SDS011;40855;51.072;5.402;2023-03-14T15:39:44;6.80;;;1.10;;
54953;SDS011;40855;51.072;5.402;2023-03-14T15:42:10;6.07;;;0.95;;
54953;SDS011;40855;51.072;5.402;2023-03-14T15:44:37;4.25;;;0.88;;
54953;SDS011;40855;51.072;5.402;2023-03-14T15:47:04;6.10;;;0.88;;
54953;SDS011;40855;51.072;5.402;2023-03-14T15:49:30;3.67;;;0.65;;
54953;SDS011;40855;51.072;5.402;2023-03-14T15:51:57;2.00;;;0.60;;
54953;SDS011;40855;51.072;5.402;2023-03-14T15:54:22;6.75;;;0.60;;
54953;SDS011;40855;51.072;5.402;2023-03-14T15:56:48;2.22;;;0.50;;
54953;SDS011;40855;51.072;5.402;2023-03-14T15:59:14;6.63;;;0.60;;
54953;SDS011;40855;51.072;5.402;2023-03-14T16:01:40;6.47;;;0.85;;
54953;SDS011;40855;51.072;5.402;2023-03-14T16:04:05;7.70;;;0.85;;
54953;SDS011;40855;51.072;5.402;2023-03-14T16:06:31;12.90;;;1.52;;
54953;SDS011;40855;51.072;5.402;2023-03-14T16:08:56;8.10;;;1.13;;
54953;SDS011;40855;51.072;5.402;2023-03-14T16:11:23;12.57;;;1.45;;
54953;SDS011;40855;51.072;5.402;2023-03-14T16:13:49;13.30;;;1.35;;
54953;SDS011;40855;51.072;5.402;2023-03-14T16:16:15;19.23;;;1.70;;
54953;SDS011;40855;51.072;5.402;2023-03-14T16:18:40;8.48;;;2.08;;